Time;durP1;ratioP1;P1;durP2;ratioP2;P2;SDS_P1;SDS_P2;PMS_P1;PMS_P2;Temp;Humidity;BMP_temperature;BMP_pressure;BME280_temperature;BME280_humidity;BME280_pressure;Samples;Min_cycle;Max_cycle;Signal;HPM_P1;HPM_P2
2022/12/04 00:02:57;;;;;;;0.60;0.60;;;-0.20;99.90;;;;;;5072094;28;20679;-80
2022/12/04 00:06:00;;;;;;;0.63;0.63;;;-0.20;99.90;;;;;;5091978;28;20206;-80
2022/12/04 00:09:04;;;;;;;0.70;0.70;;;-0.20;99.90;;;;;;5093376;28;20192;-80
2022/12/04 00:12:07;;;;;;;0.60;0.60;;;-0.20;99.90;;;;;;5093105;28;20200;-80
2022/12/04 00:15:11;;;;;;;0.60;0.60;;;-0.10;99.90;;;;;;5091802;28;20204;-80
2022/12/04 00:18:14;;;;;;;0.70;0.70;;;-0.20;99.90;;;;;;5091231;28;20223;-80
2022/12/04 00:21:17;;;;;;;0.68;0.68;;;-0.20;99.90;;;;;;5093050;28;20223;-80
2022/12/04 00:23:43;;;;;;;0.70;0.70;;;-0.20;99.90;;;;;;5083063;28;20220;-80
2022/12/04 00:26:13;;;;;;;0.60;0.60;;;-0.20;99.90;;;;;;5073002;28;20672;-80
2022/12/04 00:28:39;;;;;;;0.63;0.63;;;-0.20;99.90;;;;;;5054858;28;20596;-80
2022/12/04 00:31:11;;;;;;;0.60;0.60;;;-0.20;99.90;;;;;;5055001;28;20228;-80
2022/12/04 00:33:37;;;;;;;0.60;0.60;;;-0.20;99.90;;;;;;5073194;28;20205;-80
2022/12/04 00:36:07;;;;;;;0.60;0.60;;;-0.10;99.90;;;;;;5074521;28;20707;-80
2022/12/04 00:38:32;;;;;;;0.70;0.70;;;-0.10;99.90;;;;;;5074752;28;20244;-80
2022/12/04 00:40:59;;;;;;;0.60;0.60;;;-0.20;99.90;;;;;;5091093;28;20227;-79
2022/12/04 00:43:26;;;;;;;0.60;0.60;;;-0.10;99.90;;;;;;5094769;28;20213;-79
2022/12/04 00:45:51;;;;;;;0.60;0.60;;;-0.20;99.90;;;;;;5113290;28;20244;-79
2022/12/04 00:48:17;;;;;;;0.50;0.50;;;-0.20;99.90;;;;;;5095168;28;20195;-79
2022/12/04 00:50:44;;;;;;;0.82;0.82;;;-0.20;99.90;;;;;;5113120;28;20191;-79
2022/12/04 00:53:10;;;;;;;0.60;0.60;;;-0.20;99.90;;;;;;5113273;28;20274;-78
2022/12/04 00:55:39;;;;;;;0.57;0.57;;;-0.20;99.90;;;;;;5112837;28;20671;-78
2022/12/04 00:58:06;;;;;;;0.70;0.70;;;-0.20;99.90;;;;;;5100561;28;20195;-79
2022/12/04 01:00:35;;;;;;;0.65;0.65;;;-0.20;99.90;;;;;;5092518;28;20189;-79
2022/12/04 01:03:00;;;;;;;0.63;0.63;;;-0.20;99.90;;;;;;5092932;28;20199;-79
2022/12/04 01:05:26;;;;;;;0.60;0.60;;;-0.20;99.90;;;;;;5092784;28;20279;-79
2022/12/04 01:07:53;;;;;;;0.50;0.50;;;-0.20;99.90;;;;;;5074884;28;20245;-79
2022/12/04 01:10:19;;;;;;;0.50;0.50;;;-0.20;99.90;;;;;;5074616;28;20199;-79
2022/12/04 01:12:47;;;;;;;0.60;0.60;;;-0.20;99.90;;;;;;5092575;28;20230;-81
2022/12/04 01:15:13;;;;;;;0.50;0.50;;;-0.20;99.90;;;;;;5074751;28;20200;-79
2022/12/04 01:17:39;;;;;;;0.63;0.63;;;-0.20;99.90;;;;;;5074304;28;20215;-80
2022/12/04 01:20:05;;;;;;;2.17;2.03;;;-0.20;99.90;;;;;;5092964;28;20280;-79
2022/12/04 01:22:31;;;;;;;0.60;0.60;;;-0.20;99.90;;;;;;5074703;28;20679;-81
2022/12/04 01:24:57;;;;;;;0.50;0.50;;;-0.20;99.90;;;;;;5111352;28;20188;-79
2022/12/04 01:27:23;;;;;;;0.63;0.63;;;-0.20;99.90;;;;;;5112747;28;20192;-80
2022/12/04 01:29:49;;;;;;;0.80;0.80;;;-0.30;99.90;;;;;;5116725;28;20663;-78
2022/12/04 01:32:15;;;;;;;0.70;0.70;;;-0.30;99.90;;;;;;5116528;28;20261;-80
2022/12/04 01:34:40;;;;;;;1.13;1.13;;;-0.30;99.90;;;;;;5103694;27;20198;-79
2022/12/04 01:37:06;;;;;;;0.60;0.60;;;-0.30;99.90;;;;;;5137301;27;20195;-79
2022/12/04 01:39:35;;;;;;;0.73;0.73;;;-0.30;99.90;;;;;;5118336;27;20219;-79
2022/12/04 01:42:01;;;;;;;0.57;0.57;;;-0.30;99.90;;;;;;5137069;27;20198;-78
2022/12/04 01:44:28;;;;;;;0.60;0.60;;;-0.30;99.90;;;;;;5136843;27;20195;-81
2022/12/04 01:46:56;;;;;;;0.60;0.60;;;-0.30;99.90;;;;;;5136927;27;20240;-78
2022/12/04 01:49:35;;;;;;;0.60;0.60;;;-0.30;99.90;;;;;;5136799;27;20198;-79
2022/12/04 01:52:24;;;;;;;0.60;0.60;;;-0.30;99.90;;;;;;5136958;27;20281;-79
2022/12/04 01:54:55;;;;;;;0.68;0.68;;;-0.30;99.90;;;;;;5100124;28;20203;-80
2022/12/04 01:57:23;;;;;;;0.57;0.57;;;-0.30;99.90;;;;;;5097668;28;20758;-79
2022/12/04 01:59:59;;;;;;;0.60;0.60;;;-0.30;99.90;;;;;;5098275;28;20198;-79
2022/12/04 02:02:34;;;;;;;0.60;0.60;;;-0.30;99.90;;;;;;5116002;28;20219;-78
2022/12/04 02:05:02;;;;;;;0.60;0.60;;;-0.30;99.90;;;;;;5098045;28;20191;-78
2022/12/04 02:07:28;;;;;;;0.70;0.70;;;-0.40;99.90;;;;;;5115625;28;20684;-78
2022/12/04 02:09:54;;;;;;;0.50;0.50;;;-0.30;99.90;;;;;;5097760;28;20231;-79
2022/12/04 02:12:31;;;;;;;0.60;0.60;;;-0.40;99.90;;;;;;5115602;28;20191;-78
2022/12/04 02:15:04;;;;;;;0.55;0.55;;;-0.30;99.90;;;;;;5115917;28;20207;-78
2022/12/04 02:17:38;;;;;;;0.70;0.70;;;-0.40;99.90;;;;;;5097349;28;20272;-79
2022/12/04 02:20:16;;;;;;;0.50;0.50;;;-0.40;99.90;;;;;;5097063;28;20260;-79
2022/12/04 02:23:04;;;;;;;0.50;0.50;;;-0.30;99.90;;;;;;5096615;28;20191;-78
2022/12/04 02:26:10;;;;;;;0.50;0.50;;;-0.30;99.90;;;;;;5115473;28;20286;-78
2022/12/04 02:28:57;;;;;;;0.50;0.50;;;-0.40;99.90;;;;;;5059416;28;20235;-78
2022/12/04 02:31:33;;;;;;;0.60;0.60;;;-0.40;99.90;;;;;;5097043;28;20217;-79
2022/12/04 02:34:17;;;;;;;0.60;0.60;;;-0.40;99.90;;;;;;5115609;28;20546;-78
2022/12/04 02:36:54;;;;;;;0.70;0.70;;;-0.30;99.90;;;;;;5096885;28;20215;-78
2022/12/04 02:39:27;;;;;;;0.60;0.60;;;-0.30;99.90;;;;;;5096640;28;20198;-79
2022/12/04 02:42:03;;;;;;;0.60;0.60;;;-0.40;99.90;;;;;;5115338;28;20662;-78
2022/12/04 02:44:34;;;;;;;0.68;0.68;;;-0.30;99.90;;;;;;5096767;28;20654;-78
2022/12/04 02:47:04;;;;;;;0.63;0.63;;;-0.40;99.90;;;;;;5115197;28;20274;-78
2022/12/04 02:49:47;;;;;;;0.60;0.60;;;-0.30;99.90;;;;;;5093809;28;20244;-78
2022/12/04 02:52:17;;;;;;;0.60;0.60;;;-0.40;99.90;;;;;;5115226;28;20226;-78
2022/12/04 02:54:49;;;;;;;0.60;0.60;;;-0.40;99.90;;;;;;5114811;28;20199;-78
2022/12/04 02:57:20;;;;;;;0.70;0.70;;;-0.40;99.90;;;;;;5096414;28;20582;-78
2022/12/04 02:59:49;;;;;;;0.68;0.68;;;-0.40;99.90;;;;;;5096632;28;20196;-78
2022/12/04 03:02:47;;;;;;;0.70;0.70;;;-0.50;99.90;;;;;;5095902;28;20191;-78
2022/12/04 03:05:17;;;;;;;0.60;0.60;;;-0.50;99.90;;;;;;5114602;28;20187;-78
2022/12/04 03:07:49;;;;;;;0.60;0.60;;;-0.50;99.90;;;;;;5095798;28;20195;-78
2022/12/04 03:10:22;;;;;;;0.70;0.70;;;-0.50;99.90;;;;;;5096596;28;20666;-78
2022/12/04 03:12:55;;;;;;;0.60;0.60;;;-0.50;99.90;;;;;;5096491;28;20278;-79
2022/12/04 03:15:30;;;;;;;0.70;0.70;;;-0.50;99.90;;;;;;5096071;28;20203;-79
2022/12/04 03:18:01;;;;;;;0.60;0.60;;;-0.50;99.90;;;;;;5096282;28;20670;-80
2022/12/04 03:20:29;;;;;;;0.70;0.70;;;-0.50;99.90;;;;;;5114670;28;20183;-79
2022/12/04 03:23:01;;;;;;;0.60;0.60;;;-0.50;99.90;;;;;;5114122;28;20264;-78
2022/12/04 03:25:45;;;;;;;0.70;0.70;;;-0.50;99.90;;;;;;5096142;28;20670;-79
2022/12/04 03:28:24;;;;;;;0.60;0.60;;;-0.50;99.90;;;;;;5114568;28;20324;-78
2022/12/04 03:30:58;;;;;;;0.50;0.50;;;-0.50;99.90;;;;;;5095105;28;20579;-80
2022/12/04 03:33:32;;;;;;;0.50;0.50;;;-0.50;99.90;;;;;;5114515;28;20202;-79
2022/12/04 03:36:08;;;;;;;0.68;0.68;;;-0.50;99.90;;;;;;5113872;28;20550;-79
2022/12/04 03:38:56;;;;;;;0.63;0.63;;;-0.50;99.90;;;;;;5112592;28;20677;-80
2022/12/04 03:41:30;;;;;;;0.52;0.52;;;-0.50;99.90;;;;;;5112349;28;20701;-79
2022/12/04 03:44:12;;;;;;;0.60;0.60;;;-0.50;99.90;;;;;;5112883;28;20193;-79
2022/12/04 03:46:53;;;;;;;0.60;0.60;;;-0.50;99.90;;;;;;5095421;28;20221;-80
2022/12/04 03:50:00;;;;;;;0.70;0.70;;;-0.50;99.90;;;;;;5095668;28;20674;-79
2022/12/04 03:52:27;;;;;;;0.68;0.68;;;-0.60;99.90;;;;;;5112843;28;20195;-79
2022/12/04 03:55:28;;;;;;;0.63;0.63;;;-0.60;99.90;;;;;;5114172;28;20248;-80
2022/12/04 03:57:58;;;;;;;0.60;0.60;;;-0.60;99.90;;;;;;5113785;28;20191;-79
2022/12/04 04:00:24;;;;;;;0.70;0.70;;;-0.60;99.90;;;;;;5094729;28;20191;-80
2022/12/04 04:02:57;;;;;;;0.60;0.60;;;-0.50;99.90;;;;;;5109842;28;20196;-81
2022/12/04 04:05:24;;;;;;;0.60;0.60;;;-0.60;99.90;;;;;;5095368;28;20187;-81
2022/12/04 04:08:24;;;;;;;0.70;0.70;;;-0.50;99.90;;;;;;5113461;28;20268;-81
2022/12/04 04:10:47;;;;;;;0.50;0.50;;;-0.60;99.90;;;;;;5113690;28;20227;-82
2022/12/04 04:24:36;;;;;;;0.60;0.60;;;-0.50;99.90;;;;;;5119260;27;20206;-77
2022/12/04 04:27:02;;;;;;;0.70;0.70;;;-0.60;99.90;;;;;;5094878;28;20203;-78
2022/12/04 04:29:29;;;;;;;0.60;0.60;;;-0.60;99.90;;;;;;5094989;28;20222;-78
2022/12/04 04:32:06;;;;;;;0.70;0.70;;;-0.70;99.90;;;;;;5111506;28;20282;-78
2022/12/04 04:34:41;;;;;;;0.47;0.47;;;-0.60;99.90;;;;;;5111806;28;20723;-78
2022/12/04 04:37:29;;;;;;;0.63;0.63;;;-0.70;99.90;;;;;;5112747;28;20678;-78
2022/12/04 04:40:23;;;;;;;0.60;0.60;;;-0.60;99.90;;;;;;5111768;28;20223;-78
2022/12/04 04:42:53;;;;;;;0.60;0.60;;;-0.60;99.90;;;;;;5094700;28;20195;-78
2022/12/04 04:45:50;;;;;;;0.70;0.70;;;-0.70;99.90;;;;;;5094793;28;20195;-78
2022/12/04 04:48:34;;;;;;;0.60;0.60;;;-0.60;99.90;;;;;;5112624;28;20266;-79
2022/12/04 04:51:03;;;;;;;0.70;0.70;;;-0.60;99.90;;;;;;5094686;28;20218;-79
2022/12/04 04:53:35;;;;;;;0.73;0.73;;;-0.70;99.90;;;;;;5094310;28;20192;-79
2022/12/04 04:56:03;;;;;;;0.70;0.70;;;-0.70;99.90;;;;;;5094202;28;20212;-78
2022/12/04 04:58:28;;;;;;;0.60;0.60;;;-0.60;99.90;;;;;;5093969;28;20206;-79
2022/12/04 05:01:03;;;;;;;0.52;0.52;;;-0.60;99.90;;;;;;5092697;28;20199;-78
2022/12/04 05:03:30;;;;;;;0.60;0.60;;;-0.70;99.90;;;;;;5096188;28;20285;-79
2022/12/04 05:05:55;;;;;;;0.80;0.80;;;-0.70;99.90;;;;;;5098825;28;20221;-78
2022/12/04 05:08:22;;;;;;;0.80;0.80;;;-0.70;99.90;;;;;;5098709;28;20202;-79
2022/12/04 05:10:47;;;;;;;0.80;0.80;;;-0.70;99.90;;;;;;5099104;28;20680;-78
2022/12/04 05:13:14;;;;;;;0.70;0.70;;;-0.70;99.90;;;;;;5117155;28;20195;-78
2022/12/04 05:15:41;;;;;;;0.70;0.70;;;-0.60;99.90;;;;;;5116942;28;20246;-77
2022/12/04 05:18:07;;;;;;;0.60;0.60;;;-0.70;99.90;;;;;;5108304;28;20195;-78
2022/12/04 05:20:37;;;;;;;0.70;0.70;;;-0.60;99.90;;;;;;5078301;28;20192;-77
2022/12/04 05:23:02;;;;;;;0.65;0.65;;;-0.70;99.90;;;;;;5078145;28;20216;-78
2022/12/04 05:25:28;;;;;;;0.73;0.73;;;-0.60;99.90;;;;;;5095241;28;20254;-77
2022/12/04 05:27:54;;;;;;;0.70;0.70;;;-0.70;99.90;;;;;;5100161;28;20207;-77
2022/12/04 05:30:19;;;;;;;0.60;0.60;;;-0.60;99.90;;;;;;5115793;28;20201;-78
2022/12/04 05:32:45;;;;;;;0.60;0.60;;;-0.70;99.90;;;;;;5117067;28;20200;-78
2022/12/04 05:35:11;;;;;;;0.70;0.70;;;-0.70;99.90;;;;;;5116801;28;20654;-78
2022/12/04 05:37:38;;;;;;;0.60;0.60;;;-0.70;99.90;;;;;;5115206;28;20681;-79
2022/12/04 05:40:05;;;;;;;0.60;0.60;;;-0.70;99.90;;;;;;5099103;28;20234;-78
2022/12/04 05:42:31;;;;;;;0.60;0.60;;;-0.70;99.90;;;;;;5098079;28;20286;-78
2022/12/04 05:44:56;;;;;;;0.68;0.68;;;-0.70;99.90;;;;;;5116818;28;20218;-78
2022/12/04 05:47:22;;;;;;;0.70;0.70;;;-0.80;99.90;;;;;;5116307;28;20234;-78
2022/12/04 05:49:48;;;;;;;0.70;0.70;;;-0.80;99.90;;;;;;5116606;28;20202;-78
2022/12/04 05:52:13;;;;;;;0.70;0.70;;;-0.80;99.90;;;;;;5116452;28;20210;-78
2022/12/04 05:54:39;;;;;;;0.65;0.65;;;-0.80;99.90;;;;;;5116162;28;20200;-77
2022/12/04 05:57:05;;;;;;;0.80;0.80;;;-0.80;99.90;;;;;;5116300;28;20682;-78
2022/12/04 05:59:31;;;;;;;0.50;0.50;;;-0.70;99.90;;;;;;5116433;28;20203;-78
2022/12/04 06:01:57;;;;;;;0.70;0.70;;;-0.80;99.90;;;;;;5097961;28;20192;-78
2022/12/04 06:04:23;;;;;;;0.65;0.65;;;-0.80;99.90;;;;;;5097790;28;20192;-79
2022/12/04 06:06:48;;;;;;;0.70;0.70;;;-0.80;99.90;;;;;;5098073;28;20207;-78
2022/12/04 06:09:14;;;;;;;0.75;0.75;;;-0.80;99.90;;;;;;5097790;28;20249;-77
2022/12/04 06:11:41;;;;;;;0.52;0.52;;;-0.80;99.90;;;;;;5097315;28;20199;-80
2022/12/04 06:14:10;;;;;;;0.70;0.70;;;-0.80;99.90;;;;;;5096939;28;20199;-79
2022/12/04 06:16:38;;;;;;;0.63;0.63;;;-0.80;99.90;;;;;;5114800;28;20200;-80
2022/12/04 06:19:09;;;;;;;0.60;0.60;;;-0.90;99.90;;;;;;5115760;28;20688;-80
2022/12/04 06:21:37;;;;;;;0.60;0.60;;;-0.80;99.90;;;;;;5115493;28;20658;-77
2022/12/04 06:24:03;;;;;;;0.60;0.60;;;-0.90;99.90;;;;;;5092796;28;20287;-77
2022/12/04 06:26:29;;;;;;;0.50;0.50;;;-0.90;99.90;;;;;;5093590;28;20291;-77
2022/12/04 06:28:56;;;;;;;0.60;0.60;;;-0.90;99.90;;;;;;5114026;28;20627;-77
2022/12/04 06:31:22;;;;;;;0.60;0.60;;;-0.90;99.90;;;;;;5096971;28;20191;-78
2022/12/04 06:33:48;;;;;;;0.85;0.85;;;-0.90;99.90;;;;;;5097239;28;20663;-77
2022/12/04 06:36:17;;;;;;;0.60;0.60;;;-0.90;99.90;;;;;;5115230;28;20212;-77
2022/12/04 06:38:44;;;;;;;0.70;0.70;;;-0.90;99.90;;;;;;5096885;28;20549;-77
2022/12/04 06:41:12;;;;;;;0.70;0.70;;;-0.90;99.90;;;;;;5115145;28;20219;-79
2022/12/04 06:43:38;;;;;;;0.60;0.60;;;-0.90;99.90;;;;;;5114928;28;20195;-76
2022/12/04 06:46:12;;;;;;;0.70;0.70;;;-0.90;99.90;;;;;;5096352;28;20256;-77
2022/12/04 06:48:39;;;;;;;0.80;0.80;;;-0.90;99.90;;;;;;5096366;28;20669;-78
2022/12/04 06:51:13;;;;;;;0.60;0.60;;;-0.80;99.90;;;;;;5115074;28;20599;-77
2022/12/04 06:53:39;;;;;;;0.70;0.70;;;-0.90;99.90;;;;;;5091523;28;20235;-80
2022/12/04 06:56:08;;;;;;;2.90;1.08;;;-0.90;99.90;;;;;;5114752;28;20235;-77
2022/12/04 06:58:34;;;;;;;0.85;0.85;;;-0.90;99.90;;;;;;5114255;28;20222;-78
2022/12/04 07:01:06;;;;;;;0.80;0.80;;;-0.90;99.90;;;;;;5096390;28;20696;-77
2022/12/04 07:03:31;;;;;;;0.80;0.80;;;-0.90;99.90;;;;;;5114652;28;20525;-77
2022/12/04 07:05:57;;;;;;;0.60;0.60;;;-0.90;99.90;;;;;;5114766;28;20199;-77
2022/12/04 07:08:23;;;;;;;0.60;0.60;;;-0.90;99.90;;;;;;5096128;28;20223;-80
2022/12/04 07:10:48;;;;;;;0.80;0.80;;;-0.90;99.90;;;;;;5113870;28;20221;-77
2022/12/04 07:13:14;;;;;;;0.90;0.90;;;-0.90;99.90;;;;;;5114738;28;20199;-77
2022/12/04 07:15:40;;;;;;;0.63;0.63;;;-0.90;99.90;;;;;;5114560;28;20252;-77
2022/12/04 07:18:05;;;;;;;0.70;0.70;;;-0.90;99.90;;;;;;5096362;28;20538;-77
2022/12/04 07:20:31;;;;;;;1.85;1.75;;;-0.90;99.90;;;;;;5110508;28;20199;-76
2022/12/04 07:22:56;;;;;;;0.60;0.60;;;-0.90;99.90;;;;;;5114918;28;20228;-79
2022/12/04 07:25:22;;;;;;;0.75;0.75;;;-1.00;99.90;;;;;;5114445;28;20693;-78
2022/12/04 07:27:48;;;;;;;0.70;0.70;;;-1.00;99.90;;;;;;5113201;28;20192;-76
2022/12/04 07:30:14;;;;;;;0.93;0.93;;;-0.90;99.90;;;;;;5114397;28;20239;-77
2022/12/04 07:32:40;;;;;;;0.60;0.60;;;-0.90;99.90;;;;;;5094475;28;20290;-78
2022/12/04 07:35:06;;;;;;;1.75;1.65;;;-1.00;99.90;;;;;;5114416;28;20704;-77
2022/12/04 07:37:35;;;;;;;0.52;0.52;;;-1.00;99.90;;;;;;5095681;28;20581;-79
2022/12/04 07:40:02;;;;;;;0.68;0.68;;;-1.00;99.90;;;;;;5114259;28;20224;-78
2022/12/04 07:42:28;;;;;;;0.70;0.70;;;-1.00;99.90;;;;;;5095756;28;20780;-78
2022/12/04 07:44:56;;;;;;;0.68;0.68;;;-1.10;99.90;;;;;;5114110;28;20262;-78
2022/12/04 07:47:21;;;;;;;0.60;0.60;;;-1.10;99.90;;;;;;5095501;28;20199;-78
2022/12/04 07:49:47;;;;;;;0.70;0.70;;;-1.10;99.90;;;;;;5113960;28;20195;-78
2022/12/04 07:52:13;;;;;;;0.70;0.70;;;-1.00;99.90;;;;;;5095628;28;20200;-78
2022/12/04 07:54:38;;;;;;;0.73;0.73;;;-1.00;99.90;;;;;;5113772;28;20191;-78
2022/12/04 07:57:04;;;;;;;0.70;0.70;;;-1.10;99.90;;;;;;5095711;28;20207;-78
2022/12/04 07:59:30;;;;;;;0.70;0.70;;;-1.10;99.90;;;;;;5095520;28;20192;-77
2022/12/04 08:01:55;;;;;;;0.60;0.60;;;-1.10;99.90;;;;;;5113878;28;20206;-77
2022/12/04 08:04:21;;;;;;;0.70;0.70;;;-1.20;99.90;;;;;;5095471;28;20688;-78
2022/12/04 08:06:47;;;;;;;0.52;0.52;;;-1.20;99.90;;;;;;5095407;28;20555;-78
2022/12/04 08:09:13;;;;;;;0.60;0.60;;;-1.20;99.90;;;;;;5113703;28;20196;-77
2022/12/04 08:11:38;;;;;;;1.83;1.60;;;-1.20;99.90;;;;;;5095166;28;20203;-78
2022/12/04 08:14:06;;;;;;;0.93;0.93;;;-1.20;99.90;;;;;;5113804;28;20275;-78
2022/12/04 08:16:34;;;;;;;0.80;0.80;;;-1.20;99.90;;;;;;5092016;28;20577;-80
2022/12/04 08:19:02;;;;;;;0.75;0.75;;;-1.20;99.90;;;;;;5113560;28;20694;-78
2022/12/04 08:21:30;;;;;;;3.05;1.58;;;-1.20;99.90;;;;;;5113282;28;20199;-77
2022/12/04 08:23:57;;;;;;;0.60;0.60;;;-1.10;99.90;;;;;;5101472;28;20199;-78
2022/12/04 08:26:25;;;;;;;0.50;0.50;;;-1.10;99.90;;;;;;5091573;28;20693;-78
2022/12/04 08:28:55;;;;;;;2.13;2.03;;;-1.10;99.90;;;;;;5095849;28;20195;-79
2022/12/04 08:31:24;;;;;;;1.10;1.10;;;-1.10;99.90;;;;;;5113266;28;20191;-78
2022/12/04 08:33:52;;;;;;;1.88;1.70;;;-1.10;99.90;;;;;;5095322;28;20294;-77
2022/12/04 08:36:20;;;;;;;0.70;0.70;;;-1.10;99.90;;;;;;5113359;28;20208;-78
2022/12/04 08:38:47;;;;;;;0.60;0.60;;;-1.10;99.90;;;;;;5094568;28;20210;-78
2022/12/04 08:41:15;;;;;;;0.70;0.70;;;-1.10;99.90;;;;;;5113297;28;20684;-79
2022/12/04 08:43:41;;;;;;;0.70;0.70;;;-1.00;99.90;;;;;;5094964;28;20631;-78
2022/12/04 08:46:09;;;;;;;0.75;0.75;;;-1.00;99.90;;;;;;5095076;28;20199;-79
2022/12/04 08:48:35;;;;;;;0.60;0.60;;;-1.00;99.90;;;;;;5094756;28;20195;-79
2022/12/04 08:51:03;;;;;;;0.60;0.60;;;-1.10;99.90;;;;;;5094996;28;20713;-78
2022/12/04 08:53:30;;;;;;;0.65;0.65;;;-1.00;99.90;;;;;;5094885;28;20587;-79
2022/12/04 08:55:55;;;;;;;0.88;0.88;;;-1.00;99.90;;;;;;5113112;28;20199;-78
2022/12/04 08:58:22;;;;;;;0.60;0.60;;;-0.90;99.90;;;;;;5094816;28;20208;-80
2022/12/04 09:00:48;;;;;;;0.60;0.60;;;-0.90;99.90;;;;;;5094628;28;20199;-79
2022/12/04 09:03:19;;;;;;;0.70;0.70;;;-0.90;99.90;;;;;;5095433;28;20196;-79
2022/12/04 09:05:45;;;;;;;0.60;0.60;;;-0.90;99.90;;;;;;5095572;28;20196;-81
2022/12/04 09:08:12;;;;;;;0.70;0.70;;;-0.90;99.90;;;;;;5113215;28;20191;-78
2022/12/04 09:10:38;;;;;;;0.73;0.73;;;-0.90;99.90;;;;;;5094915;28;20225;-81
2022/12/04 09:13:04;;;;;;;0.60;0.60;;;-0.90;99.90;;;;;;5088623;28;20677;-81
2022/12/04 09:15:31;;;;;;;0.70;0.70;;;-0.90;99.90;;;;;;5112924;28;20647;-79
2022/12/04 09:17:57;;;;;;;0.60;0.60;;;-0.90;99.90;;;;;;5098779;28;20282;-79
2022/12/04 09:20:22;;;;;;;0.80;0.80;;;-0.90;99.90;;;;;;5094651;28;20302;-80
2022/12/04 09:22:48;;;;;;;0.70;0.70;;;-0.90;99.90;;;;;;5093956;28;20195;-81
2022/12/04 09:25:14;;;;;;;0.70;0.70;;;-0.80;99.90;;;;;;5094779;28;20556;-81
2022/12/04 09:27:43;;;;;;;0.75;0.75;;;-0.80;99.90;;;;;;5094683;28;20206;-79
2022/12/04 09:30:10;;;;;;;1.27;1.17;;;-0.80;99.90;;;;;;5113164;28;20184;-80
2022/12/04 09:32:36;;;;;;;1.00;1.00;;;-0.80;99.90;;;;;;5094537;28;20204;-79
2022/12/04 09:35:03;;;;;;;1.25;1.15;;;-0.90;99.90;;;;;;5112818;28;20210;-82
2022/12/04 09:37:29;;;;;;;0.77;0.77;;;-0.80;99.90;;;;;;5112276;28;20290;-81
2022/12/04 09:39:55;;;;;;;0.68;0.68;;;-0.80;99.90;;;;;;5112698;28;20306;-80
2022/12/04 09:42:26;;;;;;;0.63;0.63;;;-0.80;99.90;;;;;;5094407;28;20199;-81
2022/12/04 09:45:04;;;;;;;0.60;0.60;;;-0.90;99.90;;;;;;5094559;28;20611;-81
2022/12/04 09:47:42;;;;;;;0.70;0.70;;;-0.90;99.90;;;;;;5112464;28;20279;-79
2022/12/04 09:50:41;;;;;;;0.70;0.70;;;-0.80;99.90;;;;;;5115252;28;20190;-79
2022/12/04 09:53:19;;;;;;;0.70;0.70;;;-0.90;99.90;;;;;;5097874;28;20195;-78
2022/12/04 09:55:57;;;;;;;0.68;0.68;;;-0.90;99.90;;;;;;5098057;28;20199;-80
2022/12/04 09:58:47;;;;;;;0.70;0.70;;;-0.90;99.90;;;;;;5115800;28;20374;-77
2022/12/04 10:01:22;;;;;;;0.60;0.60;;;-0.90;99.90;;;;;;5115442;28;20697;-76
2022/12/04 10:03:48;;;;;;;0.65;0.65;;;-0.90;99.90;;;;;;5116125;28;20275;-78
2022/12/04 10:06:24;;;;;;;0.80;0.80;;;-0.90;99.90;;;;;;5116117;28;20195;-76
2022/12/04 10:09:02;;;;;;;0.68;0.68;;;-0.90;99.90;;;;;;5109971;28;20670;-76
2022/12/04 10:11:52;;;;;;;0.60;0.60;;;-0.90;99.90;;;;;;5115799;28;20288;-76
2022/12/04 10:14:45;;;;;;;0.65;0.65;;;-0.90;99.90;;;;;;5115781;28;20654;-76
2022/12/04 10:17:25;;;;;;;0.70;0.70;;;-0.90;99.90;;;;;;5115864;28;20286;-78
2022/12/04 10:19:55;;;;;;;0.70;0.70;;;-0.90;99.90;;;;;;5097147;28;20233;-75
2022/12/04 10:22:42;;;;;;;0.52;0.52;;;-0.90;99.90;;;;;;5097185;28;20263;-76
2022/12/04 10:25:13;;;;;;;0.80;0.80;;;-0.90;99.90;;;;;;5095227;28;20563;-76
2022/12/04 10:27:58;;;;;;;0.70;0.70;;;-0.90;99.90;;;;;;5076780;28;20196;-76
2022/12/04 10:30:27;;;;;;;1.10;1.00;;;-0.90;99.90;;;;;;5076686;28;20686;-76
2022/12/04 10:33:23;;;;;;;0.75;0.75;;;-0.90;99.90;;;;;;5095211;28;20552;-75
2022/12/04 10:35:51;;;;;;;0.60;0.60;;;-0.90;99.90;;;;;;5094933;28;20602;-76
2022/12/04 10:38:28;;;;;;;0.70;0.70;;;-0.80;99.90;;;;;;5094895;28;20192;-76
2022/12/04 10:41:03;;;;;;;0.70;0.70;;;-0.80;99.90;;;;;;5094738;28;20227;-77
2022/12/04 10:43:48;;;;;;;0.70;0.70;;;-0.70;99.90;;;;;;5094613;28;20543;-75
2022/12/04 10:46:20;;;;;;;1.60;1.50;;;-0.70;99.90;;;;;;5076611;28;20195;-76
2022/12/04 10:48:49;;;;;;;1.00;1.00;;;-0.60;99.90;;;;;;5094569;28;20246;-76
2022/12/04 10:51:18;;;;;;;0.73;0.73;;;-0.60;99.90;;;;;;5076681;28;20204;-75
2022/12/04 10:53:48;;;;;;;0.95;0.95;;;-0.60;99.90;;;;;;5094575;28;20192;-78
2022/12/04 10:56:17;;;;;;;0.70;0.70;;;-0.60;99.90;;;;;;5108195;28;20199;-75
2022/12/04 10:58:53;;;;;;;0.70;0.70;;;-0.60;99.90;;;;;;5114859;28;20183;-76
2022/12/04 11:01:21;;;;;;;0.63;0.63;;;-0.60;99.90;;;;;;5095857;28;20195;-76
2022/12/04 11:04:03;;;;;;;0.70;0.70;;;-0.70;99.90;;;;;;5114905;28;20188;-75
2022/12/04 11:06:29;;;;;;;0.60;0.60;;;-0.70;99.90;;;;;;5094179;28;20200;-75
2022/12/04 11:08:56;;;;;;;0.70;0.70;;;-0.80;99.90;;;;;;5094332;28;20249;-75
2022/12/04 11:11:42;;;;;;;0.70;0.70;;;-0.90;99.90;;;;;;5075917;28;20723;-77
2022/12/04 11:14:17;;;;;;;0.70;0.70;;;-1.00;99.90;;;;;;5094390;28;20659;-77
2022/12/04 11:16:48;;;;;;;0.63;0.63;;;-1.00;99.90;;;;;;5105140;28;20219;-79
2022/12/04 11:19:29;;;;;;;0.80;0.80;;;-1.10;99.90;;;;;;5114617;28;20195;-77
2022/12/04 11:22:03;;;;;;;0.65;0.65;;;-1.00;99.90;;;;;;5096475;28;20191;-76
2022/12/04 11:24:35;;;;;;;0.80;0.80;;;-1.00;99.90;;;;;;5092550;28;20241;-80
2022/12/04 11:27:03;;;;;;;0.70;0.70;;;-1.00;99.90;;;;;;5075970;28;20266;-80
2022/12/04 11:29:57;;;;;;;0.60;0.60;;;-1.00;99.90;;;;;;5094939;28;20196;-81
2022/12/04 11:32:32;;;;;;;0.65;0.65;;;-1.00;99.90;;;;;;5077404;28;20204;-81
2022/12/04 11:35:23;;;;;;;0.88;0.88;;;-1.10;99.90;;;;;;5078155;28;20207;-80
2022/12/04 11:38:14;;;;;;;0.70;0.70;;;-1.10;99.90;;;;;;5062231;28;20307;-80
2022/12/04 11:40:54;;;;;;;0.70;0.70;;;-1.10;99.90;;;;;;5093385;28;20228;-81
2022/12/04 11:43:23;;;;;;;0.60;0.60;;;-1.10;99.90;;;;;;5093653;28;20644;-82
2022/12/04 11:46:05;;;;;;;0.73;0.73;;;-1.20;99.90;;;;;;5093737;28;20707;-80
2022/12/04 11:48:43;;;;;;;1.15;1.15;;;-1.20;99.90;;;;;;5075683;28;20648;-81
2022/12/04 11:51:30;;;;;;;0.80;0.80;;;-1.20;99.90;;;;;;5077934;28;20199;-81
2022/12/04 11:54:25;;;;;;;0.80;0.80;;;-1.20;99.90;;;;;;5096010;28;20183;-79
2022/12/04 11:57:39;;;;;;;0.90;0.90;;;-1.20;99.90;;;;;;5104530;28;20310;-81
2022/12/04 12:00:08;;;;;;;1.63;1.52;;;-1.20;99.90;;;;;;5090749;28;20290;-80
2022/12/04 12:03:04;;;;;;;4.75;2.17;;;-1.20;99.90;;;;;;5107528;28;20199;-80
2022/12/04 12:06:05;;;;;;;1.23;1.13;;;-1.20;99.90;;;;;;5113705;28;20274;-80
2022/12/04 12:08:39;;;;;;;1.00;1.00;;;-1.20;99.90;;;;;;5084456;28;20204;-80
2022/12/04 12:11:09;;;;;;;1.50;1.40;;;-1.20;99.90;;;;;;5112403;28;20199;-80
2022/12/04 12:14:01;;;;;;;1.00;1.00;;;-1.20;99.90;;;;;;5112483;28;20194;-80
2022/12/04 12:16:48;;;;;;;0.90;0.90;;;-1.10;99.90;;;;;;5113259;28;20200;-81
2022/12/04 12:19:26;;;;;;;5.38;3.72;;;-1.10;99.90;;;;;;5113637;28;20710;-79
2022/12/04 12:22:20;;;;;;;4.40;3.65;;;-1.10;99.90;;;;;;5095200;28;20195;-80
2022/12/04 12:25:10;;;;;;;2.95;2.28;;;-1.10;99.90;;;;;;5095751;28;20546;-79
2022/12/04 12:27:46;;;;;;;2.70;1.17;;;-1.10;99.90;;;;;;5074604;28;20212;-77
2022/12/04 12:30:16;;;;;;;0.77;0.77;;;-1.10;99.90;;;;;;5093147;28;20200;-79
2022/12/04 12:33:09;;;;;;;0.90;0.90;;;-1.10;99.90;;;;;;5094396;28;20282;-80
2022/12/04 12:35:43;;;;;;;0.85;0.85;;;-1.10;99.90;;;;;;5094831;28;20195;-79
2022/12/04 12:38:10;;;;;;;0.68;0.68;;;-1.10;99.90;;;;;;5095200;28;20191;-79
2022/12/04 12:40:41;;;;;;;0.70;0.70;;;-1.10;99.90;;;;;;5094713;28;20224;-80
2022/12/04 12:43:29;;;;;;;1.15;1.15;;;-1.20;99.90;;;;;;5113172;28;20668;-80
2022/12/04 12:46:04;;;;;;;1.42;1.33;;;-1.20;99.90;;;;;;5113081;28;20270;-80
2022/12/04 12:48:39;;;;;;;0.70;0.70;;;-1.30;99.90;;;;;;5094703;28;20243;-80
2022/12/04 12:51:26;;;;;;;0.68;0.68;;;-1.30;99.90;;;;;;5112429;28;20206;-79
2022/12/04 12:53:59;;;;;;;0.73;0.73;;;-1.40;99.90;;;;;;5094912;28;20229;-79
2022/12/04 12:56:41;;;;;;;0.70;0.70;;;-1.40;99.90;;;;;;5112925;28;20203;-80
2022/12/04 12:59:15;;;;;;;0.90;0.90;;;-1.40;99.90;;;;;;5092787;28;20279;-78
2022/12/04 13:02:00;;;;;;;0.80;0.80;;;-1.50;99.90;;;;;;5092659;28;20188;-77
2022/12/04 13:04:39;;;;;;;0.80;0.80;;;-1.50;99.90;;;;;;5074251;28;20655;-77
2022/12/04 13:07:43;;;;;;;0.75;0.75;;;-1.50;99.90;;;;;;5092581;28;20187;-79
2022/12/04 13:10:27;;;;;;;0.60;0.60;;;-1.50;99.90;;;;;;5088320;28;20190;-79
2022/12/04 13:13:04;;;;;;;0.82;0.82;;;-1.60;99.90;;;;;;5094640;28;20565;-79
2022/12/04 13:15:40;;;;;;;0.80;0.80;;;-1.60;99.90;;;;;;5112771;28;20195;-79
2022/12/04 13:18:09;;;;;;;0.77;0.77;;;-1.60;99.90;;;;;;5094746;28;20191;-79
2022/12/04 13:20:51;;;;;;;0.80;0.80;;;-1.60;99.90;;;;;;5077350;28;20202;-80
2022/12/04 13:23:39;;;;;;;0.77;0.77;;;-1.60;99.90;;;;;;5107741;28;20199;-79
2022/12/04 13:26:36;;;;;;;0.80;0.80;;;-1.60;99.90;;;;;;5078106;28;20203;-80
2022/12/04 13:29:09;;;;;;;0.80;0.80;;;-1.70;99.90;;;;;;5078284;28;20341;-79
2022/12/04 13:31:44;;;;;;;0.70;0.70;;;-1.70;99.90;;;;;;5078039;28;20196;-80